Time;durP1;ratioP1;P1;durP2;ratioP2;P2;SDS_P1;SDS_P2;PMS_P1;PMS_P2;Temp;Humidity;BMP_temperature;BMP_pressure;BME280_temperature;BME280_humidity;BME280_pressure;Samples;Min_cycle;Max_cycle;Signal;HPM_P1;HPM_P2
2023/10/10 00:00:54;;;;;;;25.85;8.30;;;12.40;99.90;;;;;;5055891;28;20043;-66
2023/10/10 00:03:26;;;;;;;17.75;8.30;;;12.40;99.90;;;;;;5037899;28;20025;-67
2023/10/10 00:05:57;;;;;;;21.00;7.78;;;12.40;99.90;;;;;;5055363;28;20021;-66
2023/10/10 00:08:29;;;;;;;19.15;8.13;;;12.40;99.90;;;;;;5056142;28;20162;-66
2023/10/10 00:10:55;;;;;;;18.15;6.82;;;12.40;99.90;;;;;;5055707;28;20029;-66
2023/10/10 00:13:23;;;;;;;19.40;7.80;;;12.50;99.90;;;;;;5037613;28;20037;-66
2023/10/10 00:15:55;;;;;;;18.45;6.85;;;12.50;99.90;;;;;;5037518;28;20029;-66
2023/10/10 00:18:21;;;;;;;20.48;7.30;;;12.50;99.90;;;;;;5055310;28;20373;-66
2023/10/10 00:21:06;;;;;;;21.65;7.53;;;12.60;99.90;;;;;;5055335;28;20087;-66
2023/10/10 00:23:47;;;;;;;22.17;7.22;;;12.60;99.90;;;;;;5037829;28;20583;-66
2023/10/10 00:26:14;;;;;;;21.40;7.70;;;12.70;99.90;;;;;;5037760;28;20063;-66
2023/10/10 00:28:44;;;;;;;25.92;8.23;;;12.70;99.90;;;;;;5055475;28;20071;-67
2023/10/10 00:31:17;;;;;;;20.23;9.00;;;12.60;99.90;;;;;;5037345;28;20384;-66
2023/10/10 00:33:43;;;;;;;20.83;8.77;;;12.70;99.90;;;;;;5055062;28;20408;-66
2023/10/10 00:36:20;;;;;;;23.33;8.15;;;12.70;99.90;;;;;;5054728;28;20469;-66
2023/10/10 00:38:49;;;;;;;20.80;7.90;;;12.60;99.90;;;;;;5055009;28;20041;-66
2023/10/10 00:41:15;;;;;;;20.48;8.43;;;12.50;99.90;;;;;;5055115;28;20023;-66
2023/10/10 00:43:41;;;;;;;19.63;7.57;;;12.50;99.90;;;;;;5055237;28;20079;-66
2023/10/10 00:46:11;;;;;;;25.27;8.35;;;12.40;99.90;;;;;;5054754;28;20415;-66
2023/10/10 00:48:38;;;;;;;18.08;7.30;;;12.40;99.90;;;;;;5055028;28;20024;-66
2023/10/10 00:51:05;;;;;;;19.08;8.23;;;12.30;99.90;;;;;;5054973;28;20028;-69
2023/10/10 00:53:39;;;;;;;26.25;9.27;;;12.20;99.90;;;;;;5039348;28;20063;-67
2023/10/10 00:56:08;;;;;;;31.00;8.75;;;12.20;99.90;;;;;;5039079;28;20056;-66
2023/10/10 00:58:38;;;;;;;25.80;9.13;;;12.20;99.90;;;;;;5056218;28;20041;-70
2023/10/10 01:01:09;;;;;;;26.27;10.30;;;12.10;99.90;;;;;;5054557;28;20427;-66
2023/10/10 01:03:50;;;;;;;24.73;9.00;;;12.10;99.90;;;;;;5054941;28;20028;-66
2023/10/10 01:06:25;;;;;;;29.88;9.48;;;12.10;99.90;;;;;;5054798;28;20103;-66
2023/10/10 01:08:58;;;;;;;27.02;9.65;;;12.10;99.90;;;;;;5054469;28;20051;-66
2023/10/10 01:11:23;;;;;;;24.52;9.23;;;12.20;99.90;;;;;;5054915;28;20063;-66
2023/10/10 01:13:52;;;;;;;33.33;9.90;;;12.10;99.90;;;;;;5037230;28;20057;-66
2023/10/10 01:16:23;;;;;;;36.13;12.18;;;12.10;99.90;;;;;;5054560;28;20028;-66
2023/10/10 01:18:54;;;;;;;31.77;11.93;;;12.10;99.90;;;;;;5054257;28;20037;-67
2023/10/10 01:21:32;;;;;;;26.15;11.07;;;12.10;99.90;;;;;;5054398;28;20021;-66
2023/10/10 01:24:11;;;;;;;47.75;14.20;;;12.10;99.90;;;;;;5054544;28;20024;-66
2023/10/10 01:26:38;;;;;;;31.95;11.13;;;12.10;99.90;;;;;;5054464;28;20029;-66
2023/10/10 01:29:28;;;;;;;32.50;10.45;;;12.10;99.90;;;;;;5036581;28;20405;-66
2023/10/10 01:31:54;;;;;;;32.53;10.95;;;12.00;99.90;;;;;;5054064;28;20124;-66
2023/10/10 01:34:30;;;;;;;30.77;10.32;;;12.00;99.90;;;;;;5054137;28;20017;-66
2023/10/10 01:39:55;;;;;;;30.77;10.70;;;11.90;99.90;;;;;;5054156;28;20534;-66
2023/10/10 01:42:37;;;;;;;30.83;9.60;;;11.80;99.90;;;;;;5054330;28;20047;-66
2023/10/10 01:45:10;;;;;;;35.15;10.70;;;11.80;99.90;;;;;;5054259;28;20065;-66
2023/10/10 01:47:39;;;;;;;25.48;9.63;;;11.70;99.90;;;;;;5054306;28;20098;-66
2023/10/10 01:50:10;;;;;;;29.67;11.25;;;11.70;99.90;;;;;;5053912;28;20116;-69
2023/10/10 01:52:37;;;;;;;35.60;11.85;;;11.70;99.90;;;;;;5054057;28;20461;-66
2023/10/10 01:55:07;;;;;;;26.80;10.32;;;11.70;99.90;;;;;;5054076;28;20021;-66
2023/10/10 01:57:32;;;;;;;25.90;10.40;;;11.70;99.90;;;;;;5035992;28;20388;-66
2023/10/10 02:00:05;;;;;;;34.45;10.77;;;11.60;99.90;;;;;;5054027;28;20464;-66
2023/10/10 02:02:31;;;;;;;29.27;10.77;;;11.60;99.90;;;;;;5035940;28;20025;-66
2023/10/10 02:04:59;;;;;;;25.30;9.80;;;11.50;99.90;;;;;;5053697;28;20025;-66
2023/10/10 02:07:31;;;;;;;26.02;10.50;;;11.40;99.90;;;;;;5053804;28;20021;-66
2023/10/10 02:10:13;;;;;;;31.02;10.48;;;11.40;99.90;;;;;;5053705;28;20041;-66
2023/10/10 02:12:45;;;;;;;40.00;11.73;;;11.40;99.90;;;;;;5054002;28;20021;-66
2023/10/10 02:15:13;;;;;;;34.58;10.85;;;11.30;99.90;;;;;;5053888;28;20108;-66
2023/10/10 02:17:41;;;;;;;27.65;9.45;;;11.20;99.90;;;;;;5035346;28;20419;-65
2023/10/10 02:22:54;;;;;;;26.95;9.73;;;11.20;99.90;;;;;;5053740;28;20366;-66
2023/10/10 02:27:55;;;;;;;26.48;9.93;;;11.20;99.90;;;;;;5053702;28;20067;-66
2023/10/10 02:30:34;;;;;;;28.23;9.80;;;11.20;99.90;;;;;;5055878;28;20033;-66
2023/10/10 02:33:03;;;;;;;27.92;11.85;;;11.20;99.90;;;;;;5052600;28;20064;-66
2023/10/10 02:35:34;;;;;;;25.67;10.40;;;11.20;99.90;;;;;;5077571;28;20046;-66
2023/10/10 02:38:04;;;;;;;34.30;12.20;;;11.20;99.90;;;;;;5077671;28;20361;-66
2023/10/10 02:40:42;;;;;;;33.05;11.73;;;11.20;99.90;;;;;;5077459;28;20095;-66
2023/10/10 02:45:58;;;;;;;33.92;12.38;;;11.20;99.90;;;;;;5048536;28;20137;-66
2023/10/10 02:48:26;;;;;;;35.78;11.85;;;11.20;99.90;;;;;;5077257;28;20378;-66
2023/10/10 02:50:52;;;;;;;35.97;10.90;;;11.10;99.90;;;;;;5077186;28;20025;-66
2023/10/10 02:53:19;;;;;;;37.38;11.68;;;11.10;99.90;;;;;;5077123;28;20104;-66
2023/10/10 02:55:51;;;;;;;28.77;11.43;;;11.10;99.90;;;;;;5075922;28;20024;-66
2023/10/10 02:58:20;;;;;;;37.05;11.77;;;11.10;99.90;;;;;;5077040;28;20027;-66
2023/10/10 03:00:57;;;;;;;28.55;10.98;;;11.10;99.90;;;;;;5077054;28;20112;-66
2023/10/10 03:03:25;;;;;;;30.55;12.05;;;11.10;99.90;;;;;;5076166;28;20035;-66
2023/10/10 03:05:51;;;;;;;27.25;10.88;;;11.10;99.90;;;;;;5075562;28;20031;-66
2023/10/10 03:11:00;;;;;;;;;;;11.10;99.90;;;;;;5077289;28;20025;-66
2023/10/10 03:13:47;;;;;;;32.35;11.27;;;11.10;99.90;;;;;;5076966;28;19904;-66
2023/10/10 03:21:44;;;;;;;33.03;11.00;;;11.20;99.90;;;;;;5076584;28;20424;-66
2023/10/10 03:29:21;;;;;;;28.55;12.60;;;11.20;99.90;;;;;;5076488;28;20121;-66
2023/10/10 03:32:19;;;;;;;30.60;11.40;;;11.20;99.90;;;;;;5070839;28;20044;-66
2023/10/10 03:34:44;;;;;;;33.53;10.73;;;11.20;99.90;;;;;;5055794;28;20511;-66
2023/10/10 03:37:21;;;;;;;32.55;11.18;;;11.30;99.90;;;;;;5038496;28;20040;-66
2023/10/10 03:39:54;;;;;;;27.70;11.00;;;11.30;99.90;;;;;;5055841;28;20533;-66
2023/10/10 05:24:08;;;;;;;27.77;10.38;;;11.40;99.90;;;;;;5054520;28;20075;-65
2023/10/10 05:26:46;;;;;;;24.77;11.73;;;11.60;99.90;;;;;;5056393;28;20029;-66
2023/10/10 05:29:13;;;;;;;23.15;11.13;;;11.60;99.90;;;;;;5059207;28;20025;-66
2023/10/10 05:31:39;;;;;;;24.50;11.35;;;11.70;99.90;;;;;;5044561;28;20048;-65
2023/10/10 05:34:05;;;;;;;18.40;9.80;;;11.80;99.90;;;;;;5078685;28;20474;-65
2023/10/10 05:36:31;;;;;;;21.48;9.57;;;11.90;99.90;;;;;;5077692;28;20074;-65
2023/10/10 05:38:56;;;;;;;26.67;9.45;;;11.90;99.90;;;;;;5075313;28;20078;-65
2023/10/10 05:41:22;;;;;;;24.42;10.95;;;12.00;99.90;;;;;;5074195;28;20052;-65
2023/10/10 05:43:49;;;;;;;25.85;9.80;;;12.10;99.90;;;;;;5073832;28;20020;-65
2023/10/10 05:46:15;;;;;;;22.17;9.10;;;12.20;99.90;;;;;;5073808;28;20028;-65
2023/10/10 05:48:41;;;;;;;22.30;9.75;;;12.30;99.90;;;;;;5073836;28;20032;-65
2023/10/10 05:51:09;;;;;;;17.85;9.23;;;12.30;99.90;;;;;;5073782;28;20053;-65
2023/10/10 05:53:34;;;;;;;23.48;10.18;;;12.40;99.90;;;;;;5073656;28;20036;-65
2023/10/10 05:56:12;;;;;;;19.58;8.82;;;12.50;99.90;;;;;;5073358;28;20033;-65
2023/10/10 05:58:39;;;;;;;21.60;9.77;;;12.70;99.90;;;;;;5072255;28;20056;-66
2023/10/10 06:01:07;;;;;;;23.45;10.95;;;12.70;99.90;;;;;;5073544;28;20032;-65
2023/10/10 06:03:34;;;;;;;19.93;9.43;;;12.80;99.90;;;;;;5073277;28;20035;-66
2023/10/10 06:06:03;;;;;;;17.20;8.02;;;12.80;99.90;;;;;;5071708;28;20025;-65
2023/10/10 06:08:31;;;;;;;;;;;12.90;99.90;;;;;;5072599;28;20024;-65
2023/10/10 06:10:57;;;;;;;20.98;9.43;;;12.90;99.90;;;;;;5073339;28;20364;-65
2023/10/10 06:13:23;;;;;;;23.58;9.45;;;12.90;99.90;;;;;;5073498;28;20039;-65
2023/10/10 06:15:50;;;;;;;24.02;10.48;;;13.00;99.90;;;;;;5073367;28;20043;-65
2023/10/10 06:18:18;;;;;;;29.02;11.32;;;13.00;99.90;;;;;;5072192;28;20032;-65
2023/10/10 06:20:44;;;;;;;24.33;10.23;;;13.10;99.90;;;;;;5072247;28;20119;-65
2023/10/10 06:23:14;;;;;;;22.98;11.02;;;13.20;99.90;;;;;;5072081;28;20527;-65
2023/10/10 06:25:41;;;;;;;25.00;11.45;;;13.20;99.90;;;;;;5073134;28;20392;-65
2023/10/10 06:28:18;;;;;;;26.25;11.25;;;13.30;99.90;;;;;;5072162;28;20036;-66
2023/10/10 06:30:44;;;;;;;24.35;10.02;;;13.40;99.90;;;;;;5073522;28;20119;-65
2023/10/10 06:33:14;;;;;;;19.98;9.68;;;13.50;99.90;;;;;;5071947;28;20083;-65
2023/10/10 06:35:40;;;;;;;24.63;9.85;;;13.60;99.90;;;;;;5073631;28;20028;-65
2023/10/10 06:38:10;;;;;;;21.55;9.15;;;13.80;99.90;;;;;;5073311;28;20091;-66
2023/10/10 06:40:52;;;;;;;22.15;8.82;;;13.90;99.90;;;;;;5073543;28;20093;-65
2023/10/10 06:43:24;;;;;;;21.90;8.82;;;13.90;99.90;;;;;;5073531;28;20024;-66
2023/10/10 06:45:54;;;;;;;19.52;8.30;;;13.90;99.90;;;;;;5073578;28;20545;-66
2023/10/10 06:48:25;;;;;;;21.92;7.53;;;13.90;99.90;;;;;;5073218;28;20021;-66
2023/10/10 06:50:50;;;;;;;22.35;9.70;;;13.90;99.90;;;;;;5073250;28;20039;-65
2023/10/10 06:53:37;;;;;;;21.70;8.30;;;13.90;99.90;;;;;;5073670;28;20028;-65
2023/10/10 06:56:14;;;;;;;28.38;8.77;;;14.00;99.90;;;;;;5072181;28;20036;-66
2023/10/10 06:58:49;;;;;;;23.27;9.15;;;14.00;99.90;;;;;;5071718;28;20029;-66
2023/10/10 07:01:19;;;;;;;25.35;8.77;;;13.90;99.90;;;;;;5072722;28;20043;-66
2023/10/10 07:03:54;;;;;;;22.50;10.02;;;14.00;99.90;;;;;;5072641;28;20017;-67
2023/10/10 07:06:20;;;;;;;20.05;9.38;;;14.00;99.90;;;;;;5072982;28;20459;-66
2023/10/10 07:08:49;;;;;;;18.77;8.77;;;14.00;99.90;;;;;;5072911;28;20300;-66
2023/10/10 07:11:20;;;;;;;20.13;8.85;;;14.00;99.90;;;;;;5073186;28;20453;-67
2023/10/10 07:13:58;;;;;;;22.85;10.35;;;14.00;99.90;;;;;;5073020;28;20027;-66
2023/10/10 07:16:23;;;;;;;16.90;8.15;;;14.10;99.90;;;;;;5075216;28;20033;-66
2023/10/10 07:18:56;;;;;;;19.52;8.43;;;14.10;99.90;;;;;;5078723;28;20039;-67
2023/10/10 07:21:36;;;;;;;16.17;8.68;;;14.10;99.90;;;;;;5078782;28;20032;-66
2023/10/10 07:24:05;;;;;;;15.00;8.35;;;14.10;99.90;;;;;;5077449;28;20016;-66
2023/10/10 07:26:40;;;;;;;20.80;9.40;;;14.10;99.90;;;;;;5077028;28;20060;-66
2023/10/10 07:31:53;;;;;;;18.65;8.32;;;14.10;99.90;;;;;;5071119;28;20551;-66
2023/10/10 07:34:19;;;;;;;16.27;7.60;;;14.10;99.90;;;;;;5056334;28;20086;-66
2023/10/10 07:36:50;;;;;;;18.08;8.32;;;14.10;99.90;;;;;;5056803;28;20032;-66
2023/10/10 07:39:33;;;;;;;17.02;8.13;;;14.10;99.90;;;;;;5057702;28;20466;-66
2023/10/10 07:41:59;;;;;;;17.23;7.50;;;14.20;99.90;;;;;;5056167;28;20036;-66
2023/10/10 07:44:25;;;;;;;15.75;6.25;;;14.40;99.90;;;;;;5056082;28;20031;-66
2023/10/10 07:49:35;;;;;;;16.98;7.70;;;14.50;99.90;;;;;;5056401;28;20500;-66
2023/10/10 07:52:02;;;;;;;11.45;6.05;;;14.50;99.90;;;;;;5055565;28;20060;-66
2023/10/10 07:54:29;;;;;;;12.25;6.20;;;14.50;99.90;;;;;;5038015;28;20111;-66
2023/10/10 07:56:55;;;;;;;13.07;5.75;;;14.50;99.90;;;;;;5055666;28;20025;-66
2023/10/10 07:59:21;;;;;;;10.50;6.38;;;14.50;99.90;;;;;;5037582;28;20033;-66
2023/10/10 08:01:48;;;;;;;15.73;6.57;;;14.50;99.90;;;;;;5038039;28;20025;-66
2023/10/10 08:04:14;;;;;;;17.05;6.97;;;14.40;99.90;;;;;;5055729;28;20033;-66
2023/10/10 08:06:44;;;;;;;12.02;5.63;;;14.40;99.90;;;;;;5055263;28;20094;-66
2023/10/10 08:11:43;;;;;;;13.45;7.05;;;14.40;99.90;;;;;;5055532;28;20025;-66
2023/10/10 08:14:09;;;;;;;15.18;8.30;;;14.50;99.90;;;;;;5055415;28;20025;-66
2023/10/10 08:16:36;;;;;;;23.08;8.63;;;14.50;99.90;;;;;;5055690;28;20036;-66
2023/10/10 08:19:06;;;;;;;15.50;7.70;;;14.50;99.90;;;;;;5055283;28;20029;-67
2023/10/10 08:21:37;;;;;;;19.52;8.90;;;14.50;99.90;;;;;;5055290;28;20028;-66
2023/10/10 08:24:04;;;;;;;21.70;7.75;;;14.50;99.90;;;;;;5055425;28;20025;-66
2023/10/10 08:26:38;;;;;;;19.45;7.78;;;14.60;99.90;;;;;;5055137;28;20053;-67
2023/10/10 08:29:06;;;;;;;14.60;8.52;;;14.70;99.90;;;;;;5036827;28;20044;-66
2023/10/10 08:31:33;;;;;;;21.67;7.78;;;14.80;99.90;;;;;;5040836;28;20151;-66
2023/10/10 08:33:58;;;;;;;20.42;7.78;;;14.90;99.90;;;;;;5075417;28;20037;-66
2023/10/10 08:36:24;;;;;;;16.55;7.85;;;15.00;99.90;;;;;;5074766;28;20028;-66
2023/10/10 08:38:51;;;;;;;15.35;7.47;;;15.10;99.90;;;;;;5077170;28;20111;-67
2023/10/10 08:41:21;;;;;;;18.98;8.65;;;15.10;99.90;;;;;;5075277;28;20043;-67
2023/10/10 08:44:14;;;;;;;17.25;8.25;;;15.00;99.90;;;;;;5074657;28;20408;-66
2023/10/10 08:46:41;;;;;;;;;;;15.10;99.90;;;;;;5074856;28;20044;-66
2023/10/10 08:49:08;;;;;;;15.25;7.13;;;15.10;99.90;;;;;;5075276;28;20367;-67
2023/10/10 08:51:35;;;;;;;20.08;7.20;;;15.10;99.90;;;;;;5075151;28;20103;-66
2023/10/10 08:54:01;;;;;;;24.27;7.95;;;15.10;99.90;;;;;;5074806;28;20031;-66
2023/10/10 08:56:28;;;;;;;26.35;7.80;;;15.10;99.90;;;;;;5074938;28;20111;-66
2023/10/10 08:58:54;;;;;;;20.13;7.80;;;15.20;99.90;;;;;;5073440;28;20122;-66
2023/10/10 09:01:20;;;;;;;19.67;6.78;;;15.30;99.90;;;;;;5074461;28;20107;-67
2023/10/10 09:03:46;;;;;;;18.27;8.18;;;15.30;99.90;;;;;;5073285;28;20457;-66
2023/10/10 09:06:21;;;;;;;17.95;7.60;;;15.30;99.90;;;;;;5073261;28;20373;-66
2023/10/10 09:08:49;;;;;;;23.00;8.55;;;15.30;99.90;;;;;;5074441;28;20035;-66
2023/10/10 09:11:19;;;;;;;15.05;7.30;;;15.30;99.90;;;;;;5074356;28;20108;-66
2023/10/10 09:13:51;;;;;;;20.83;8.27;;;15.40;99.90;;;;;;5074306;28;20029;-66
2023/10/10 09:16:35;;;;;;;20.42;7.43;;;15.60;99.90;;;;;;5073027;28;20025;-66
2023/10/10 09:19:08;;;;;;;19.67;8.15;;;15.80;99.90;;;;;;5072864;28;20034;-66
2023/10/10 09:21:55;;;;;;;20.08;9.15;;;16.10;99.90;;;;;;5074722;28;20423;-66
2023/10/10 09:24:28;;;;;;;21.75;7.82;;;16.20;99.90;;;;;;5074178;28;20021;-66
2023/10/10 09:27:10;;;;;;;25.95;7.88;;;16.20;99.90;;;;;;5073241;28;20379;-66
2023/10/10 09:29:43;;;;;;;19.67;8.10;;;16.20;99.90;;;;;;5074158;28;20032;-66
2023/10/10 09:32:13;;;;;;;20.23;8.07;;;16.20;99.90;;;;;;5072676;28;20052;-66
2023/10/10 09:34:42;;;;;;;16.48;8.00;;;16.30;99.90;;;;;;5072746;28;20024;-66
2023/10/10 09:37:13;;;;;;;20.10;8.73;;;16.40;99.90;;;;;;5073957;28;20052;-66
2023/10/10 09:39:42;;;;;;;23.13;7.50;;;16.50;99.90;;;;;;5073079;28;20038;-66
2023/10/10 09:47:42;;;;;;;18.40;7.93;;;16.50;99.90;;;;;;5074003;28;20025;-66
2023/10/10 09:52:58;;;;;;;24.08;7.57;;;16.80;99.90;;;;;;5073933;28;20453;-65
2023/10/10 10:06:05;;;;;;;27.13;7.05;;;17.80;99.90;;;;;;5073757;28;20069;-66
2023/10/10 10:08:43;;;;;;;21.48;7.40;;;18.20;99.90;;;;;;5074198;28;20389;-66
2023/10/10 10:11:26;;;;;;;22.83;6.75;;;18.50;99.90;;;;;;5073787;28;20029;-65
2023/10/10 10:14:25;;;;;;;20.05;6.15;;;18.90;99.90;;;;;;5073570;28;20108;-66
2023/10/10 10:17:12;;;;;;;20.45;6.53;;;19.30;99.90;;;;;;5073682;28;20036;-67
2023/10/10 10:19:45;;;;;;;19.40;6.95;;;19.90;99.90;;;;;;5072496;28;20025;-63
2023/10/10 10:22:17;;;;;;;14.75;5.40;;;20.60;99.90;;;;;;5072609;28;20028;-63
2023/10/10 10:24:46;;;;;;;17.63;6.10;;;21.20;99.90;;;;;;5073770;28;20025;-65
2023/10/10 10:27:43;;;;;;;16.10;6.80;;;21.70;99.90;;;;;;5072414;28;20350;-65
2023/10/10 10:32:51;;;;;;;15.70;5.53;;;21.90;99.90;;;;;;5060567;28;20492;-63
2023/10/10 10:35:24;;;;;;;19.55;6.10;;;21.50;99.90;;;;;;5035614;28;20387;-65
2023/10/10 10:37:59;;;;;;;16.50;5.82;;;21.00;99.90;;;;;;5053640;28;20032;-66
2023/10/10 10:43:13;;;;;;;19.23;5.57;;;20.40;99.90;;;;;;5053399;28;20086;-65
2023/10/10 10:45:51;;;;;;;18.23;6.35;;;20.30;99.90;;;;;;5053491;28;20480;-65
2023/10/10 10:48:30;;;;;;;14.65;6.03;;;20.30;99.90;;;;;;5053309;28;20021;-65
2023/10/10 10:51:04;;;;;;;19.02;6.22;;;20.30;99.90;;;;;;5054499;28;20029;-65
2023/10/10 10:53:38;;;;;;;21.02;5.63;;;20.20;99.90;;;;;;5039676;28;20040;-65
2023/10/10 11:01:27;;;;;;;18.80;6.03;;;20.00;99.90;;;;;;5057146;28;20036;-65
2023/10/10 11:03:54;;;;;;;15.90;6.00;;;20.10;99.90;;;;;;5057291;28;20369;-64
2023/10/10 11:06:24;;;;;;;22.42;6.43;;;20.20;99.90;;;;;;5057005;28;20118;-64
2023/10/10 11:14:00;;;;;;;18.70;5.68;;;21.70;99.90;;;;;;5056765;28;20510;-65
2023/10/10 11:16:39;;;;;;;18.02;6.15;;;21.90;99.90;;;;;;5038896;28;20029;-65
2023/10/10 11:22:06;;;;;;;14.90;5.75;;;22.00;99.90;;;;;;5056608;28;19955;-65
2023/10/10 11:24:34;;;;;;;18.10;6.13;;;22.80;99.90;;;;;;5038953;28;20028;-65
2023/10/10 11:29:44;;;;;;;19.63;6.43;;;22.40;99.90;;;;;;5056355;28;20370;-63
2023/10/10 11:32:13;;;;;;;21.05;7.65;;;22.40;99.90;;;;;;5056235;28;20053;-65
2023/10/10 11:34:42;;;;;;;18.35;6.20;;;22.10;99.90;;;;;;5038368;28;20384;-65
2023/10/10 11:37:22;;;;;;;17.02;6.25;;;21.60;99.90;;;;;;5056295;28;20385;-65
2023/10/10 11:39:52;;;;;;;16.98;6.63;;;21.20;99.90;;;;;;5056670;28;20037;-65
2023/10/10 11:42:33;;;;;;;19.00;6.18;;;21.00;99.90;;;;;;5038173;28;20037;-65
2023/10/10 11:45:02;;;;;;;23.35;6.28;;;20.90;99.90;;;;;;5038271;28;20025;-65
2023/10/10 11:47:28;;;;;;;22.10;6.57;;;21.10;99.90;;;;;;5056102;28;20029;-65
2023/10/10 11:50:13;;;;;;;15.95;6.25;;;21.50;99.90;;;;;;5056055;28;20064;-65
2023/10/10 11:52:53;;;;;;;17.35;6.07;;;21.50;99.90;;;;;;5055838;28;20431;-65
2023/10/10 11:55:23;;;;;;;17.65;5.80;;;21.20;99.90;;;;;;5055973;28;20020;-66
2023/10/10 11:57:49;;;;;;;23.13;6.80;;;21.20;99.90;;;;;;5037967;28;20484;-65
2023/10/10 12:00:22;;;;;;;13.30;5.93;;;21.10;99.90;;;;;;5055807;28;20123;-65
2023/10/10 12:02:51;;;;;;;15.27;6.10;;;21.00;99.90;;;;;;5054826;28;20355;-65
2023/10/10 12:08:06;;;;;;;15.80;6.47;;;20.90;99.90;;;;;;5055610;28;20380;-65
2023/10/10 12:13:09;;;;;;;19.75;5.47;;;20.80;99.90;;;;;;5055603;28;20025;-61
2023/10/10 12:15:39;;;;;;;13.85;5.47;;;20.80;99.90;;;;;;5055631;28;20048;-60
2023/10/10 12:18:11;;;;;;;19.00;5.50;;;20.60;99.90;;;;;;5055434;28;20052;-61
2023/10/10 12:20:44;;;;;;;21.77;6.18;;;20.50;99.90;;;;;;5054986;28;20036;-61
2023/10/10 12:23:13;;;;;;;13.82;5.38;;;20.50;99.90;;;;;;5055440;28;20029;-61
2023/10/10 12:25:41;;;;;;;18.52;6.40;;;20.30;99.90;;;;;;5037386;28;20472;-65
2023/10/10 12:28:12;;;;;;;14.05;5.28;;;20.20;99.90;;;;;;5055502;28;20024;-65
2023/10/10 12:30:42;;;;;;;14.10;5.40;;;20.10;99.90;;;;;;5055322;28;20369;-65
2023/10/10 12:33:08;;;;;;;14.57;5.93;;;20.10;99.90;;;;;;5055836;28;20041;-64
2023/10/10 12:35:37;;;;;;;16.55;5.95;;;20.10;99.90;;;;;;5055225;28;20025;-65
2023/10/10 12:38:04;;;;;;;18.88;5.93;;;20.10;99.90;;;;;;5054829;28;20377;-65
2023/10/10 12:40:33;;;;;;;17.35;5.43;;;20.10;99.90;;;;;;5055012;28;20045;-65
2023/10/10 12:43:01;;;;;;;12.38;5.40;;;20.00;99.90;;;;;;5055273;28;20035;-64
2023/10/10 12:45:29;;;;;;;16.88;5.10;;;20.00;99.90;;;;;;5055050;28;20029;-65
2023/10/10 12:47:57;;;;;;;16.75;5.57;;;20.00;99.90;;;;;;5055090;28;20052;-65
2023/10/10 12:50:26;;;;;;;12.93;5.60;;;20.10;99.90;;;;;;5038392;28;20397;-65
2023/10/10 12:53:07;;;;;;;19.48;5.65;;;20.00;99.90;;;;;;5057893;28;20021;-66
2023/10/10 12:58:43;;;;;;;19.73;6.15;;;20.10;99.90;;;;;;5003496;28;20073;-66
2023/10/10 13:01:22;;;;;;;8.40;4.88;;;20.20;99.90;;;;;;5059426;28;20063;-65
2023/10/10 13:03:48;;;;;;;16.70;6.95;;;20.30;99.90;;;;;;5055597;28;20079;-65
2023/10/10 13:06:14;;;;;;;12.90;5.20;;;20.30;99.90;;;;;;5054617;28;20033;-64
2023/10/10 13:08:54;;;;;;;13.95;5.55;;;20.30;99.90;;;;;;5054587;28;20025;-65
2023/10/10 13:11:32;;;;;;;14.23;4.97;;;20.50;99.90;;;;;;5054777;28;20162;-65
2023/10/10 13:14:08;;;;;;;12.15;5.07;;;20.60;99.90;;;;;;5036590;28;20461;-65
2023/10/10 13:16:52;;;;;;;14.90;5.50;;;20.90;99.90;;;;;;5036583;28;20017;-65
2023/10/10 13:19:20;;;;;;;9.55;4.72;;;21.00;99.90;;;;;;5036597;28;20028;-65
2023/10/10 13:21:47;;;;;;;11.40;4.70;;;20.90;99.90;;;;;;5053954;28;20532;-65
2023/10/10 13:24:18;;;;;;;19.40;5.28;;;20.70;99.90;;;;;;5054230;28;20024;-65
2023/10/10 13:26:49;;;;;;;16.85;5.00;;;20.50;99.90;;;;;;5054311;28;20017;-65
2023/10/10 13:29:16;;;;;;;11.68;4.90;;;20.40;99.90;;;;;;5054189;28;20365;-64
2023/10/10 13:31:44;;;;;;;11.50;4.43;;;20.30;99.90;;;;;;5042218;28;20137;-65
2023/10/10 13:34:10;;;;;;;12.98;4.88;;;20.20;99.90;;;;;;5072928;28;20107;-65
2023/10/10 13:36:36;;;;;;;18.33;5.60;;;20.30;99.90;;;;;;5072420;28;20040;-65
2023/10/10 13:39:07;;;;;;;14.77;5.68;;;20.40;99.90;;;;;;5073881;28;20032;-65
2023/10/10 13:41:36;;;;;;;9.93;5.00;;;20.50;99.90;;;;;;5073910;28;20480;-64
2023/10/10 13:44:03;;;;;;;13.93;5.07;;;20.80;99.90;;;;;;5073917;28;20024;-64
2023/10/10 13:46:37;;;;;;;12.05;4.80;;;20.90;99.90;;;;;;5074011;28;20029;-65
2023/10/10 13:49:04;;;;;;;11.13;4.80;;;21.30;99.90;;;;;;5072672;28;20483;-65
2023/10/10 13:51:39;;;;;;;11.30;4.90;;;21.50;99.90;;;;;;5073964;28;20104;-65
2023/10/10 13:54:05;;;;;;;16.25;5.15;;;21.50;99.90;;;;;;5072782;28;20115;-64
2023/10/10 13:56:31;;;;;;;13.90;4.82;;;21.20;99.90;;;;;;5074072;28;20032;-65
2023/10/10 13:58:57;;;;;;;14.23;4.90;;;21.20;99.90;;;;;;5073965;28;20028;-65
2023/10/10 14:01:29;;;;;;;13.13;4.97;;;21.20;99.90;;;;;;5073799;28;20032;-65
2023/10/10 14:04:13;;;;;;;12.00;4.88;;;21.10;99.90;;;;;;5072528;28;20056;-65
2023/10/10 14:06:48;;;;;;;17.40;5.63;;;21.10;99.90;;;;;;5073858;28;20133;-65
2023/10/10 14:09:25;;;;;;;17.63;5.28;;;21.10;99.90;;;;;;5073767;28;20059;-65
2023/10/10 14:12:01;;;;;;;11.27;4.78;;;21.10;99.90;;;;;;5073999;28;20025;-65
2023/10/10 14:14:28;;;;;;;11.68;4.80;;;21.00;99.90;;;;;;5074255;28;20028;-65
2023/10/10 14:16:53;;;;;;;12.30;5.10;;;21.00;99.90;;;;;;5073379;28;20082;-65
2023/10/10 14:19:23;;;;;;;12.70;5.22;;;21.20;99.90;;;;;;5073451;28;20028;-65
2023/10/10 14:21:52;;;;;;;15.07;4.95;;;21.30;99.90;;;;;;5073452;28;20140;-65
2023/10/10 14:24:18;;;;;;;15.90;5.40;;;21.20;99.90;;;;;;5073274;28;20134;-64
2023/10/10 14:26:44;;;;;;;10.65;5.38;;;21.00;99.90;;;;;;5075984;28;20036;-65
2023/10/10 14:29:13;;;;;;;14.68;4.85;;;20.90;99.90;;;;;;5078845;28;20029;-65
2023/10/10 14:31:43;;;;;;;20.10;5.60;;;20.80;99.90;;;;;;5093425;28;20480;-65
2023/10/10 14:34:19;;;;;;;14.60;5.47;;;20.70;99.90;;;;;;5077932;28;20116;-65
2023/10/10 14:36:46;;;;;;;15.23;5.45;;;20.80;99.90;;;;;;5059441;28;20039;-65
2023/10/10 14:39:28;;;;;;;11.25;5.13;;;20.70;99.90;;;;;;5077481;28;20025;-64
2023/10/10 14:41:57;;;;;;;11.38;4.88;;;20.60;99.90;;;;;;5077446;28;20033;-64
2023/10/10 14:44:23;;;;;;;;;;;20.50;99.90;;;;;;5077928;28;20028;-65
2023/10/10 14:46:51;;;;;;;10.23;5.03;;;20.40;99.90;;;;;;5077505;28;19912;-64
2023/10/10 14:49:17;;;;;;;11.32;5.68;;;20.20;99.90;;;;;;5078002;28;20111;-64
2023/10/10 14:51:50;;;;;;;13.27;5.88;;;20.10;99.90;;;;;;5076768;28;20056;-65
2023/10/10 14:54:19;;;;;;;17.02;5.30;;;20.00;99.90;;;;;;5077336;28;20025;-62
2023/10/10 14:56:50;;;;;;;;;;;19.90;99.90;;;;;;5077828;28;20453;-63
2023/10/10 14:59:18;;;;;;;13.88;5.25;;;19.80;99.90;;;;;;5077114;28;19920;-62
2023/10/10 15:01:47;;;;;;;15.57;5.72;;;19.60;99.90;;;;;;5078209;28;20037;-62
2023/10/10 15:04:17;;;;;;;14.80;5.03;;;19.50;99.90;;;;;;5063515;28;20063;-62
2023/10/10 15:06:43;;;;;;;14.38;5.32;;;19.40;99.90;;;;;;5083360;28;20028;-62
2023/10/10 15:09:13;;;;;;;16.30;5.82;;;19.30;99.90;;;;;;5083050;28;20055;-62
2023/10/10 15:11:42;;;;;;;15.02;5.00;;;19.30;99.90;;;;;;5078968;28;20488;-62
2023/10/10 15:14:12;;;;;;;20.13;6.03;;;19.20;99.90;;;;;;5058852;28;20098;-62
2023/10/10 15:16:39;;;;;;;18.60;5.70;;;19.20;99.90;;;;;;5077205;28;20501;-61
2023/10/10 15:19:08;;;;;;;20.75;5.38;;;19.20;99.90;;;;;;5076602;28;20492;-61
2023/10/10 15:21:35;;;;;;;14.70;5.57;;;19.10;99.90;;;;;;5076768;28;20086;-61
2023/10/10 15:24:01;;;;;;;15.15;4.93;;;19.00;99.90;;;;;;5076726;28;20112;-62
2023/10/10 15:26:27;;;;;;;14.05;5.00;;;18.90;99.90;;;;;;5076273;28;20032;-63
2023/10/10 15:28:57;;;;;;;19.30;5.18;;;18.90;99.90;;;;;;5058568;28;20025;-62
2023/10/10 15:31:25;;;;;;;11.00;5.50;;;18.90;99.90;;;;;;5058401;28;20413;-63
2023/10/10 15:33:51;;;;;;;16.98;5.97;;;18.80;99.90;;;;;;5077938;28;20444;-62
2023/10/10 15:36:18;;;;;;;20.98;5.57;;;18.80;99.90;;;;;;5078961;28;20036;-65
2023/10/10 15:38:44;;;;;;;12.73;4.90;;;18.80;99.90;;;;;;5062396;28;20051;-65
2023/10/10 15:41:21;;;;;;;15.00;4.80;;;18.80;99.90;;;;;;5060961;28;20544;-65
2023/10/10 15:43:48;;;;;;;20.58;5.00;;;18.70;99.90;;;;;;5078146;28;20468;-65
2023/10/10 15:46:18;;;;;;;19.63;6.32;;;18.60;99.90;;;;;;5059021;28;20021;-65
2023/10/10 15:48:50;;;;;;;19.80;6.00;;;18.40;99.90;;;;;;5076173;28;20057;-64
2023/10/10 15:51:16;;;;;;;12.23;4.70;;;18.20;99.90;;;;;;5076407;28;20035;-65
2023/10/10 15:53:45;;;;;;;14.57;5.53;;;18.10;99.90;;;;;;5073647;28;20361;-64
2023/10/10 15:56:13;;;;;;;13.63;4.80;;;18.00;99.90;;;;;;5058145;28;20032;-64